createdAt,value
2018-10-11T00:00:26.035Z,1016.25
2018-10-11T00:01:25.961Z,1016.32
2018-10-11T00:02:25.950Z,1016.32
2018-10-11T00:03:25.913Z,1016.29
2018-10-11T00:04:25.928Z,1016.31
2018-10-11T00:05:25.963Z,1016.34
2018-10-11T00:06:25.888Z,1016.35
2018-10-11T00:07:25.906Z,1016.35
2018-10-11T00:08:25.888Z,1016.28
2018-10-11T00:09:25.864Z,1016.26
2018-10-11T00:10:25.915Z,1016.27
2018-10-11T00:11:25.835Z,1016.34
2018-10-11T00:12:25.780Z,1016.34
2018-10-11T00:13:25.807Z,1016.30
2018-10-11T00:14:25.925Z,1016.30
2018-10-11T00:15:25.789Z,1016.25
2018-10-11T00:16:25.776Z,1016.32
2018-10-11T00:17:25.778Z,1016.29
2018-10-11T00:18:25.746Z,1016.28
2018-10-11T00:19:25.706Z,1016.29
2018-10-11T00:20:25.756Z,1016.26
2018-10-11T00:21:25.793Z,1016.26
2018-10-11T00:22:25.732Z,1016.27
2018-10-11T00:23:25.699Z,1016.33
2018-10-11T00:24:25.677Z,1016.34
2018-10-11T00:25:25.686Z,1016.31
2018-10-11T00:26:25.673Z,1016.33
2018-10-11T00:27:25.631Z,1016.34
2018-10-11T00:28:25.628Z,1016.37
2018-10-11T00:29:25.646Z,1016.33
2018-10-11T00:30:25.702Z,1016.32
2018-10-11T00:31:25.592Z,1016.34
2018-10-11T00:32:25.599Z,1016.35
2018-10-11T00:33:25.594Z,1016.33
2018-10-11T00:34:25.596Z,1016.30
2018-10-11T00:35:25.594Z,1016.39
2018-10-11T00:36:25.580Z,1016.29
2018-10-11T00:37:25.551Z,1016.35
2018-10-11T00:38:25.513Z,1016.26
2018-10-11T00:39:25.513Z,1016.24
2018-10-11T00:40:25.515Z,1016.24
2018-10-11T00:41:25.471Z,1016.22
2018-10-11T00:42:25.467Z,1016.20
2018-10-11T00:43:25.418Z,1016.22
2018-10-11T00:44:25.481Z,1016.19
2018-10-11T00:45:25.409Z,1016.19
2018-10-11T00:46:25.410Z,1016.20
2018-10-11T00:47:25.424Z,1016.21
2018-10-11T00:48:25.395Z,1016.17
2018-10-11T00:49:25.541Z,1016.19
2018-10-11T00:50:25.378Z,1016.23
2018-10-11T00:51:25.410Z,1016.22
2018-10-11T00:52:25.349Z,1016.22
2018-10-11T00:53:25.405Z,1016.19
2018-10-11T00:54:25.351Z,1016.20
2018-10-11T00:55:25.413Z,1016.15
2018-10-11T00:56:25.330Z,1016.13
2018-10-11T00:57:25.370Z,1016.05
2018-10-11T00:58:25.323Z,1016.09
2018-10-11T00:59:25.291Z,1016.09
2018-10-11T01:00:25.281Z,1016.07
2018-10-11T01:01:25.357Z,1016.01
2018-10-11T01:02:25.295Z,1016.08
2018-10-11T01:03:25.278Z,1016.01
2018-10-11T01:04:25.213Z,1016.00
2018-10-11T01:05:25.209Z,1015.93
2018-10-11T01:06:25.185Z,1015.97
2018-10-11T01:07:25.241Z,1015.96
2018-10-11T01:08:25.191Z,1015.96
2018-10-11T01:09:25.270Z,1015.94
2018-10-11T01:10:25.121Z,1015.92
2018-10-11T01:11:25.152Z,1015.88
2018-10-11T01:12:25.269Z,1015.88
2018-10-11T01:13:25.091Z,1015.84
2018-10-11T01:14:25.079Z,1015.83
2018-10-11T01:15:25.096Z,1015.83
2018-10-11T01:16:25.187Z,1015.77
2018-10-11T01:17:25.128Z,1015.75
2018-10-11T01:18:25.088Z,1015.77
2018-10-11T01:19:25.059Z,1015.76
2018-10-11T01:20:25.027Z,1015.69
2018-10-11T01:21:25.025Z,1015.78
2018-10-11T01:22:25.014Z,1015.80
2018-10-11T01:23:25.027Z,1015.80
2018-10-11T01:24:24.992Z,1015.76
2018-10-11T01:25:24.988Z,1015.81
2018-10-11T01:26:24.963Z,1015.78
2018-10-11T01:27:24.934Z,1015.77
2018-10-11T01:28:24.971Z,1015.79
2018-10-11T01:29:25.075Z,1015.81
2018-10-11T01:30:24.912Z,1015.74
2018-10-11T01:31:24.908Z,1015.83
2018-10-11T01:32:24.962Z,1015.79
2018-10-11T01:33:24.983Z,1015.80
2018-10-11T01:34:24.864Z,1015.76
2018-10-11T01:35:24.877Z,1015.78
2018-10-11T01:36:24.873Z,1015.76
2018-10-11T01:37:24.833Z,1015.79
2018-10-11T01:38:24.860Z,1015.77
2018-10-11T01:39:24.889Z,1015.74
2018-10-11T01:40:24.827Z,1015.84
2018-10-11T01:41:24.829Z,1015.75
2018-10-11T01:42:24.830Z,1015.78
2018-10-11T01:43:24.820Z,1015.69
2018-10-11T01:44:24.842Z,1015.69
2018-10-11T01:45:24.783Z,1015.78
2018-10-11T01:46:24.753Z,1015.76
2018-10-11T01:47:24.728Z,1015.78
2018-10-11T01:48:24.726Z,1015.78
2018-10-11T01:49:24.726Z,1015.74
2018-10-11T01:50:24.736Z,1015.84
2018-10-11T01:51:24.689Z,1015.75
2018-10-11T01:52:24.684Z,1015.76
2018-10-11T01:53:24.698Z,1015.77
2018-10-11T01:54:24.696Z,1015.72
2018-10-11T01:55:24.685Z,1015.68
2018-10-11T01:56:24.658Z,1015.67
2018-10-11T01:57:24.713Z,1015.72
2018-10-11T01:58:24.600Z,1015.67
2018-10-11T01:59:24.652Z,1015.69
2018-10-11T02:00:24.609Z,1015.66
2018-10-11T02:01:24.555Z,1015.66
2018-10-11T02:02:24.584Z,1015.66
2018-10-11T02:03:24.554Z,1015.69
2018-10-11T02:04:24.593Z,1015.66
2018-10-11T02:05:24.562Z,1015.74
2018-10-11T02:06:24.525Z,1015.72
2018-10-11T02:07:24.497Z,1015.74
2018-10-11T02:08:24.498Z,1015.70
2018-10-11T02:09:24.543Z,1015.72
2018-10-11T02:10:24.450Z,1015.73
2018-10-11T02:11:24.481Z,1015.74
2018-10-11T02:12:24.527Z,1015.71
2018-10-11T02:13:24.517Z,1015.72
2018-10-11T02:14:24.503Z,1015.66
2018-10-11T02:15:24.499Z,1015.71
2018-10-11T02:16:24.373Z,1015.72
2018-10-11T02:17:24.418Z,1015.67
2018-10-11T02:18:24.445Z,1015.71
2018-10-11T02:19:24.372Z,1015.73
2018-10-11T02:20:24.374Z,1015.67
2018-10-11T02:21:24.377Z,1015.66
2018-10-11T02:22:24.349Z,1015.68
2018-10-11T02:23:24.295Z,1015.65
2018-10-11T02:24:24.308Z,1015.60
2018-10-11T02:25:24.380Z,1015.62
2018-10-11T02:26:24.309Z,1015.57
2018-10-11T02:27:24.377Z,1015.57
2018-10-11T02:28:24.304Z,1015.52
2018-10-11T02:29:24.286Z,1015.48
2018-10-11T02:30:24.284Z,1015.48
2018-10-11T02:31:24.273Z,1015.43
2018-10-11T02:32:24.230Z,1015.44
2018-10-11T02:33:24.278Z,1015.41
2018-10-11T02:34:24.254Z,1015.45
2018-10-11T02:35:24.314Z,1015.41
2018-10-11T02:36:24.215Z,1015.42
2018-10-11T02:37:24.125Z,1015.44
2018-10-11T02:38:24.180Z,1015.46
2018-10-11T02:39:24.226Z,1015.40
2018-10-11T02:40:24.165Z,1015.41
2018-10-11T02:41:24.230Z,1015.40
2018-10-11T02:42:24.115Z,1015.46
2018-10-11T02:43:24.129Z,1015.43
2018-10-11T02:44:24.085Z,1015.46
2018-10-11T02:45:24.097Z,1015.43
2018-10-11T02:46:24.028Z,1015.43
2018-10-11T02:47:24.112Z,1015.47
2018-10-11T02:48:24.063Z,1015.42
2018-10-11T02:49:24.074Z,1015.38
2018-10-11T02:50:24.060Z,1015.41
2018-10-11T02:51:23.999Z,1015.36
2018-10-11T02:52:24.063Z,1015.39
2018-10-11T02:53:23.992Z,1015.29
2018-10-11T02:54:24.050Z,1015.38
2018-10-11T02:55:23.984Z,1015.29
2018-10-11T02:56:24.022Z,1015.29
2018-10-11T02:57:23.971Z,1015.31
2018-10-11T02:58:24.015Z,1015.34
2018-10-11T02:59:23.967Z,1015.32
2018-10-11T03:00:23.960Z,1015.27
2018-10-11T03:01:23.957Z,1015.26
2018-10-11T03:02:23.922Z,1015.36
2018-10-11T03:03:23.884Z,1015.30
2018-10-11T03:04:23.938Z,1015.31
2018-10-11T03:05:23.895Z,1015.34
2018-10-11T03:06:23.940Z,1015.18
2018-10-11T03:07:23.862Z,1015.28
2018-10-11T03:08:23.785Z,1015.17
2018-10-11T03:09:23.858Z,1015.27
2018-10-11T03:10:23.839Z,1015.24
2018-10-11T03:11:23.807Z,1015.32
2018-10-11T03:12:23.750Z,1015.31
2018-10-11T03:13:23.784Z,1015.35
2018-10-11T03:14:23.824Z,1015.32
2018-10-11T03:15:23.809Z,1015.28
2018-10-11T03:16:23.777Z,1015.28
2018-10-11T03:17:23.713Z,1015.31
2018-10-11T03:18:23.742Z,1015.29
2018-10-11T03:19:23.727Z,1015.34
2018-10-11T03:20:23.716Z,1015.25
2018-10-11T03:21:23.660Z,1015.24
2018-10-11T03:22:23.666Z,1015.24
2018-10-11T03:23:23.686Z,1015.27
2018-10-11T03:24:23.664Z,1015.19
2018-10-11T03:25:23.661Z,1015.19
2018-10-11T03:26:23.625Z,1015.19
2018-10-11T03:27:23.597Z,1015.22
2018-10-11T03:28:23.702Z,1015.22
2018-10-11T03:29:23.655Z,1015.18
2018-10-11T03:30:23.598Z,1015.21
2018-10-11T03:31:23.588Z,1015.21
2018-10-11T03:32:23.539Z,1015.24
2018-10-11T03:33:23.598Z,1015.22
2018-10-11T03:34:23.565Z,1015.22
2018-10-11T03:35:23.525Z,1015.21
2018-10-11T03:36:23.512Z,1015.20
2018-10-11T03:37:23.521Z,1015.19
2018-10-11T03:38:23.515Z,1015.17
2018-10-11T03:39:23.558Z,1015.18
2018-10-11T03:40:23.482Z,1015.19
2018-10-11T03:41:23.504Z,1015.22
2018-10-11T03:42:23.473Z,1015.17
2018-10-11T03:43:23.429Z,1015.11
2018-10-11T03:44:23.529Z,1015.15
2018-10-11T03:45:23.439Z,1015.12
2018-10-11T03:46:23.455Z,1015.13
2018-10-11T03:47:23.396Z,1015.11
2018-10-11T03:48:23.972Z,1015.13
2018-10-11T03:49:23.590Z,1015.16
2018-10-11T03:50:23.378Z,1015.12
2018-10-11T03:51:23.586Z,1015.15
2018-10-11T03:52:23.476Z,1015.12
2018-10-11T03:53:23.391Z,1015.12
2018-10-11T03:54:23.564Z,1015.06
2018-10-11T03:55:23.355Z,1015.08
2018-10-11T03:56:23.325Z,1015.07
2018-10-11T03:57:23.339Z,1015.09
2018-10-11T03:58:23.325Z,1015.07
2018-10-11T03:59:23.408Z,1015.02
2018-10-11T04:00:23.352Z,1015.13
2018-10-11T04:01:23.258Z,1015.09
2018-10-11T04:02:23.354Z,1015.09
2018-10-11T04:03:23.351Z,1015.09
2018-10-11T04:04:23.264Z,1015.10
2018-10-11T04:05:23.207Z,1015.15
2018-10-11T04:06:23.187Z,1015.04
2018-10-11T04:07:23.280Z,1015.07
2018-10-11T04:08:23.277Z,1015.10
2018-10-11T04:09:23.191Z,1015.04
2018-10-11T04:10:23.278Z,1015.01
2018-10-11T04:11:23.216Z,1015.00
2018-10-11T04:12:23.270Z,1015.04
2018-10-11T05:05:04.776Z,1014.63
2018-10-11T05:06:04.781Z,1014.72
2018-10-11T05:07:04.751Z,1014.77
2018-10-11T05:08:04.767Z,1014.75
2018-10-11T05:09:04.721Z,1014.68
2018-10-11T05:10:04.706Z,1014.68
2018-10-11T05:11:04.704Z,1014.77
2018-10-11T05:12:04.684Z,1014.73
2018-10-11T05:13:04.683Z,1014.66
2018-10-11T05:14:04.662Z,1014.68
2018-10-11T05:15:04.651Z,1014.75
2018-10-11T05:16:04.639Z,1014.73
2018-10-11T05:17:04.624Z,1014.67
2018-10-11T05:18:04.662Z,1014.68
2018-10-11T05:19:04.604Z,1014.66
2018-10-11T05:20:04.590Z,1014.71
